Flight Track Log - Related Links

Times and Time Zones

All times are in EDT time to prevent confusion due to time zone crossing. See the AAL2007 flight status page for this flight to view local times or setup timezone preferences in your user account.

Time Position Orientation Groundspeed Altitude Reporting Facility
EDT Latitude Longitude Course Direction KTS MPH feet Rate Location/Type
Thu 06:22:34 PM 41.9983 -87.9458 162° South 167 192 34,000  Level Chicago Center
Thu 06:23:36 PM 41.9669 -87.9883 225° Southwest 194 223 3,500 -13,984 Descending Chicago Center
Thu 06:24:00 PM 41.8137 -88.0751 217° Southwest  Level Estimated
Thu 06:24:38 PM 41.9042 -88.0256 204° Southwest 245 282 5,100  Level Chicago Center
Thu 06:25:00 PM 41.7296 -88.1590 201° Southwest  Level Estimated
Thu 06:25:40 PM 41.8172 -88.0117 173° South 257 296 4,900  Level Chicago Center
Thu 06:26:00 PM 41.6455 -88.2427 197° South  Level Estimated
Thu 06:26:42 PM 41.7494 -88.0417 198° South 259 298 6,800  Level Chicago Center
Thu 06:27:00 PM 41.5459 -88.1991 162° South  Level FlightAware Approximate
Thu 06:27:44 PM 41.6733 -88.0694 195° South 282 325 9,700  Level Chicago Center
Thu 06:28:46 PM 41.5917 -88.1003 196° South 301 346 12,800 2,448 Climbing Chicago Center
Thu 06:29:49 PM 41.5100 -88.1383 199° South 315 362 14,800 1,872 Climbing Chicago Center
Thu 06:30:51 PM 41.3942 -88.1831 196° South 380 437 16,700 1,790 Climbing Chicago Center
Thu 06:31:53 PM 41.2889 -88.2239 196° South 400 460 18,500 1,935 Climbing Chicago Center
Thu 06:32:55 PM 41.1842 -88.2800 202° Southwest 406 467 20,700 2,032 Climbing Chicago Center
Thu 06:33:57 PM 41.0739 -88.3297 199° South 418 481 22,700 1,935 Climbing Chicago Center
Thu 06:34:59 PM 40.9367 -88.3906 199° South 434 499 24,700 1,790 Climbing Chicago Center
Thu 06:36:01 PM 40.8336 -88.4669 209° Southwest 433 498 26,400 1,548 Climbing Chicago Center
Thu 06:37:03 PM 40.7483 -88.5711 223° Southwest 422 486 27,900 1,548 Climbing Chicago Center
Thu 06:38:05 PM 40.6542 -88.6681 218° Southwest 428 493 29,600 1,597 Climbing Chicago Center
Thu 06:39:07 PM 40.5631 -88.7633 218° Southwest 423 487 31,200 1,364 Climbing Chicago Center
Thu 06:41:01 PM 40.3853 -88.9428 218° Southwest 405 466 33,600 949 Climbing Kansas City Center
Thu 06:42:04 PM 40.2981 -89.0339 219° Southwest 401 461 34,000 195 Climbing Kansas City Center
Thu 06:43:04 PM 40.2097 -89.1250 218° Southwest 402 463 34,000  Level Kansas City Center
Thu 06:44:05 PM 40.1219 -89.2150 218° Southwest 400 460 34,000  Level Kansas City Center
Thu 06:45:09 PM 40.0353 -89.3050 218° Southwest 398 458 34,000  Level Kansas City Center
Thu 06:46:09 PM 39.9308 -89.4103 218° Southwest 395 455 34,000  Level Kansas City Center
Thu 06:47:13 PM 39.8442 -89.4992 218° Southwest 395 455 34,000  Level Kansas City Center
Thu 06:48:16 PM 39.7569 -89.5878 218° Southwest 396 456 34,000  Level Kansas City Center
Thu 06:49:17 PM 39.6767 -89.6686 218° Southwest 398 458 34,000  Level Kansas City Center
Thu 06:50:18 PM 39.5719 -89.7750 218° Southwest 399 459 34,000  Level Kansas City Center
Thu 06:51:22 PM 39.4844 -89.8625 218° Southwest 398 458 34,000  Level Kansas City Center
Thu 06:52:23 PM 39.3967 -89.9508 218° Southwest 400 460 34,000  Level Kansas City Center
Thu 06:53:26 PM 39.3086 -90.0386 218° Southwest 401 461 34,000  Level Kansas City Center
Thu 06:54:28 PM 39.2189 -90.1278 218° Southwest 406 467 34,000  Level Kansas City Center
Thu 06:55:28 PM 39.1317 -90.2161 218° Southwest 403 464 34,000  Level Kansas City Center
Thu 06:56:32 PM 39.0269 -90.3186 217° Southwest 397 457 34,000  Level Kansas City Center
Thu 06:57:33 PM 38.9392 -90.4053 218° Southwest 390 449 34,000  Level Kansas City Center
Thu 06:58:34 PM 38.8531 -90.4928 218° Southwest 393 452 34,000  Level Kansas City Center
Thu 06:59:38 PM 38.7717 -90.5853 222° Southwest 391 450 34,000  Level Kansas City Center
Thu 07:00:42 PM 38.6831 -90.6889 222° Southwest 390 449 34,000  Level Kansas City Center
Thu 07:01:43 PM 38.6033 -90.7792 222° Southwest 388 447 34,000  Level Kansas City Center
Thu 07:02:43 PM 38.5239 -90.8703 222° Southwest 386 444 34,000  Level Kansas City Center
Thu 07:03:47 PM 38.4436 -90.9622 222° Southwest 388 447 34,000  Level Kansas City Center
Thu 07:04:48 PM 38.3631 -91.0528 221° Southwest 389 448 34,000  Level Kansas City Center
Thu 07:05:49 PM 38.2675 -91.1628 222° Southwest 386 444 34,000  Level Kansas City Center
Thu 07:06:53 PM 38.1872 -91.2525 221° Southwest 386 444 34,000  Level Kansas City Center
Thu 07:07:54 PM 38.1117 -91.3378 222° Southwest 383 441 34,000  Level Kansas City Center
Thu 07:08:55 PM 38.0328 -91.4278 222° Southwest 380 437 34,000  Level Kansas City Center
Thu 07:09:58 PM 37.9406 -91.5397 224° Southwest 377 434 34,000  Level Kansas City Center
Thu 07:11:00 PM 37.8847 -91.6469 237° Southwest 363 418 34,000  Level Kansas City Center
Thu 07:12:03 PM 37.8311 -91.7561 238° Southwest 363 418 34,000  Level Kansas City Center
Thu 07:13:05 PM 37.7775 -91.8653 238° Southwest 362 417 34,000  Level Kansas City Center
Thu 07:14:06 PM 37.7256 -91.9731 239° Southwest 359 413 34,000  Level Kansas City Center
Thu 07:15:09 PM 37.6608 -92.0731 231° Southwest 369 425 34,000  Level Kansas City Center
Thu 07:16:10 PM 37.5714 -92.1528 215° Southwest 385 443 34,000  Level Kansas City Center
Thu 07:17:13 PM 37.4822 -92.2319 215° Southwest 389 448 34,000  Level Kansas City Center
Thu 07:18:14 PM 37.3775 -92.3269 216° Southwest 386 444 34,000  Level Kansas City Center
Thu 07:19:17 PM 37.2892 -92.4053 215° Southwest 385 443 34,000  Level Kansas City Center
Thu 07:20:18 PM 37.2003 -92.4836 215° Southwest 387 445 34,000  Level Kansas City Center
Thu 07:21:19 PM 37.1125 -92.5606 215° Southwest 384 442 34,000  Level Kansas City Center
Thu 07:22:23 PM 37.0258 -92.6383 216° Southwest 383 441 34,000  Level Kansas City Center
Thu 07:23:24 PM 36.9375 -92.7158 215° Southwest 384 442 34,000  Level Kansas City Center
Thu 07:24:28 PM 36.8508 -92.7931 215° Southwest 383 441 34,000  Level Kansas City Center
Thu 07:24:46 PM 36.8158 -92.8242 215° Southwest 390 449 34,000  Level Memphis Center
Thu 07:25:45 PM 36.7289 -92.8992 215° Southwest 390 449 34,000  Level Memphis Center
Thu 07:26:46 PM 36.6397 -92.9764 215° Southwest 390 449 34,000  Level Memphis Center
Thu 07:27:45 PM 36.5528 -93.0511 215° Southwest 390 449 34,000  Level Memphis Center
Thu 07:28:45 PM 36.4656 -93.1258 215° Southwest 390 449 34,000  Level Memphis Center
Thu 07:29:46 PM 36.3764 -93.2025 215° Southwest 390 449 34,000  Level Memphis Center
Thu 07:30:45 PM 36.2869 -93.2792 215° Southwest 390 449 34,000  Level Memphis Center
Thu 07:31:45 PM 36.1997 -93.3533 214° Southwest 390 449 34,000  Level Memphis Center
Thu 07:32:45 PM 36.1106 -93.4272 214° Southwest 390 449 34,000  Level Memphis Center
Thu 07:33:45 PM 36.0231 -93.5061 216° Southwest 390 449 34,000  Level Memphis Center
Thu 07:34:46 PM 35.9356 -93.5794 214° Southwest 390 449 34,000  Level Memphis Center
Thu 07:35:45 PM 35.8461 -93.6528 214° Southwest 390 449 34,000  Level Memphis Center
Thu 07:36:45 PM 35.7567 -93.7286 215° Southwest 390 449 34,000  Level Memphis Center
Thu 07:37:45 PM 35.6669 -93.8042 214° Southwest 390 449 34,000  Level Memphis Center
Thu 07:38:45 PM 35.5772 -93.8797 214° Southwest 390 449 34,000  Level Memphis Center
Thu 07:39:45 PM 35.4875 -93.9522 213° Southwest 390 449 34,000  Level Memphis Center
Thu 07:40:45 PM 35.3997 -94.0275 215° Southwest 390 449 34,000  Level Memphis Center
Thu 07:41:45 PM 35.3100 -94.1025 214° Southwest 390 449 34,000  Level Memphis Center
Thu 07:42:45 PM 35.2200 -94.1772 214° Southwest 390 449 34,000  Level Memphis Center
Thu 07:43:45 PM 35.1303 -94.2492 213° Southwest 390 449 34,000  Level Memphis Center
Thu 07:44:45 PM 35.0444 -94.3239 215° Southwest 390 449 34,000  Level Memphis Center
Thu 07:45:45 PM 34.9567 -94.3958 214° Southwest 390 449 34,000  Level Memphis Center
Thu 07:46:45 PM 34.8667 -94.4700 214° Southwest 390 449 34,000  Level Memphis Center
Thu 07:47:30 PM 34.8017 -94.5258 215° Southwest 391 450 34,000  Level Fort Worth Center
Thu 07:48:30 PM 34.7114 -94.6019 215° Southwest 396 456 34,000  Level Fort Worth Center
Thu 07:49:30 PM 34.6233 -94.6731 214° Southwest 396 456 34,000  Level Fort Worth Center
Thu 07:50:30 PM 34.5331 -94.7467 214° Southwest 396 456 34,000  Level Fort Worth Center
Thu 07:51:30 PM 34.4428 -94.8197 214° Southwest 396 456 34,000  Level Fort Worth Center
Thu 07:52:30 PM 34.3525 -94.8931 214° Southwest 396 456 34,000  Level Fort Worth Center
Thu 07:53:30 PM 34.2581 -94.9686 213° Southwest 396 456 34,000  Level Fort Worth Center
Thu 07:54:30 PM 34.1678 -95.0439 215° Southwest 396 456 34,000  Level Fort Worth Center
Thu 07:55:31 PM 34.0731 -95.1167 212° Southwest 396 456 34,000  Level Fort Worth Center
Thu 07:56:30 PM 33.9825 -95.1892 214° Southwest 396 456 34,000  Level Fort Worth Center
Thu 07:57:30 PM 33.8858 -95.2617 212° Southwest 404 465 34,000  Level Fort Worth Center
Thu 07:58:30 PM 33.7972 -95.3364 215° Southwest 404 465 34,000  Level Fort Worth Center
Thu 07:59:30 PM 33.7044 -95.4086 213° Southwest 404 465 34,000  Level Fort Worth Center
Thu 08:00:30 PM 33.6139 -95.4806 213° Southwest 404 465 34,000  Level Fort Worth Center
Thu 08:01:31 PM 33.5253 -95.5522 214° Southwest 397 457 34,000  Level Fort Worth Center
Thu 08:02:30 PM 33.4386 -95.6211 214° Southwest 386 444 34,000  Level Fort Worth Center
Thu 08:03:30 PM 33.3372 -95.6978 212° Southwest 386 444 34,000  Level Fort Worth Center
Thu 08:04:30 PM 33.2506 -95.7692 215° Southwest 391 450 34,000  Level Fort Worth Center
Thu 08:05:30 PM 33.1597 -95.8378 212° Southwest 391 450 34,000  Level Fort Worth Center
Thu 08:06:30 PM 33.0686 -95.9089 213° Southwest 398 458 34,000  Level Fort Worth Center
Thu 08:07:31 PM 32.9756 -95.9797 213° Southwest 398 458 34,000  Level Fort Worth Center
Thu 08:08:30 PM 32.8825 -96.0528 213° Southwest 398 458 34,000  Level Fort Worth Center
Thu 08:09:30 PM 32.7933 -96.1233 214° Southwest 393 452 34,000  Level Fort Worth Center
Thu 08:10:31 PM 32.7003 -96.1939 213° Southwest 398 458 34,000  Level Fort Worth Center
Thu 08:11:30 PM 32.6194 -96.2567 213° Southwest 398 458 34,000  Level Fort Worth Center
Thu 08:12:30 PM 32.5239 -96.3292 213° Southwest 393 452 34,000  Level Fort Worth Center
Thu 08:13:31 PM 32.4347 -96.3992 214° Southwest 393 452 34,000  Level Fort Worth Center
Thu 08:14:30 PM 32.3392 -96.4692 212° Southwest 393 452 34,000  Level Fort Worth Center
Thu 08:15:30 PM 32.2481 -96.5414 214° Southwest 393 452 34,000 -198 Level Fort Worth Center
Thu 08:16:31 PM 32.1419 -96.6183 212° Southwest 393 452 33,600 -850 Descending Fort Worth Center
Thu 08:17:30 PM 32.0422 -96.6781 207° Southwest 411 473 32,300 -1,361 Descending Fort Worth Center
Thu 08:18:30 PM 31.9547 -96.7375 210° Southwest 411 473 30,900 -1,450 Descending Fort Worth Center
Thu 08:19:30 PM 31.8528 -96.8019 208° Southwest 411 473 29,400 -1,500 Descending Fort Worth Center
Thu 08:20:30 PM 31.7508 -96.8686 209° Southwest 416 479 27,900 -1,500 Descending Fort Worth Center
Thu 08:21:30 PM 31.6486 -96.9325 208° Southwest 416 479 26,400 -1,463 Descending Fort Worth Center
Thu 08:21:52 PM 31.6128 -96.9536 207° Southwest 420 483 25,900 -1,429 Descending Houston Center
Thu 08:22:54 PM 31.5094 -97.0197 209° Southwest 420 483 24,400 -1,597 Descending Houston Center
Thu 08:23:56 PM 31.3906 -97.0942 208° Southwest 413 475 22,600 -1,597 Descending Houston Center
Thu 08:24:58 PM 31.2906 -97.1578 209° Southwest 408 470 21,100 -1,258 Descending Houston Center
Thu 08:26:00 PM 31.1908 -97.2167 207° Southwest 400 460 20,000 -1,403 Descending Houston Center
Thu 08:27:02 PM 31.0833 -97.2578 198° South 403 464 18,200 -1,790 Descending Houston Center
Thu 08:28:04 PM 30.9775 -97.2997 199° South 399 459 16,300 -2,226 Descending Houston Center
Thu 08:29:06 PM 30.8656 -97.3431 198° South 384 442 13,600 -2,226 Descending Houston Center
Thu 08:30:08 PM 30.7700 -97.3800 198° South 366 421 11,700 -1,694 Descending Houston Center
Thu 08:31:10 PM 30.6917 -97.4325 210° Southwest 327 376 10,100 -1,548 Descending Houston Center
Thu 08:32:12 PM 30.6242 -97.4847 214° Southwest 299 344 8,500 -1,839 Descending Houston Center
Thu 08:33:14 PM 30.5622 -97.5328 214° Southwest 272 313 6,300 -1,920 Descending Houston Center
Thu 08:34:17 PM 30.5011 -97.5819 215° Southwest 266 306 4,500 -1,776 Descending Houston Center
Thu 08:35:19 PM 30.4386 -97.6386 218° Southwest 248 285 2,600 -1,016 Descending Houston Center
Thu 08:36:21 PM 30.3797 -97.6567 195° South 224 258 2,400 -194 Descending Houston Center

Login

Don't have an account? Register now (free) for customized features, flight alerts, and more!